Time;durP1;ratioP1;P1;durP2;ratioP2;P2;SDS_P1;SDS_P2;PMS_P1;PMS_P2;Temp;Humidity;BMP_temperature;BMP_pressure;BME280_temperature;BME280_humidity;BME280_pressure;Samples;Min_cycle;Max_cycle;Signal;HPM_P1;HPM_P2
2023/10/17 00:02:26;;;;;;;3.03;2.10;;;6.10;89.10;;;;;;5064042;28;20473;-66
2023/10/17 00:04:52;;;;;;;2.90;1.70;;;6.10;89.20;;;;;;5051344;28;20471;-66
2023/10/17 00:07:20;;;;;;;3.67;2.07;;;6.10;88.80;;;;;;5045695;28;20475;-66
2023/10/17 00:09:48;;;;;;;5.30;2.60;;;6.00;89.00;;;;;;5047839;28;20563;-66
2023/10/17 00:12:33;;;;;;;5.20;1.73;;;6.10;89.70;;;;;;5047349;28;20489;-65
2023/10/17 00:15:00;;;;;;;2.17;1.77;;;6.10;90.10;;;;;;5064873;28;20485;-64
2023/10/17 00:17:28;;;;;;;3.00;2.60;;;6.00;90.00;;;;;;5059043;28;20579;-66
2023/10/17 00:19:55;;;;;;;3.77;2.00;;;6.10;90.00;;;;;;5058285;28;21114;-65
2023/10/17 00:22:24;;;;;;;3.63;2.03;;;6.10;90.10;;;;;;5045643;28;21051;-65
2023/10/17 00:24:55;;;;;;;5.60;3.27;;;6.00;89.40;;;;;;5052731;28;20484;-66
2023/10/17 00:27:22;;;;;;;4.73;2.40;;;6.10;90.00;;;;;;5083671;28;20467;-64
2023/10/17 00:29:49;;;;;;;9.80;1.90;;;6.00;90.10;;;;;;5075577;28;21014;-66
2023/10/17 00:32:16;;;;;;;4.90;2.17;;;6.00;90.20;;;;;;5066269;28;20752;-64
2023/10/17 00:34:46;;;;;;;2.97;2.37;;;6.00;90.20;;;;;;5079909;28;20552;-66
2023/10/17 00:37:15;;;;;;;3.57;1.80;;;6.00;90.50;;;;;;5049925;28;20550;-65
2023/10/17 00:39:41;;;;;;;2.10;1.67;;;6.00;90.60;;;;;;5043381;28;20499;-66
2023/10/17 00:44:53;;;;;;;3.07;1.77;;;6.00;90.20;;;;;;5060222;28;20627;-66
2023/10/17 00:47:19;;;;;;;4.20;2.50;;;6.00;90.20;;;;;;5052009;28;20999;-65
2023/10/17 00:49:50;;;;;;;4.60;1.33;;;6.00;90.50;;;;;;5066316;28;20566;-66
2023/10/17 00:52:24;;;;;;;2.83;1.43;;;6.00;90.00;;;;;;5054727;28;20485;-65
2023/10/17 00:54:53;;;;;;;3.27;1.60;;;6.00;90.10;;;;;;5064049;28;20485;-66
2023/10/17 00:57:21;;;;;;;3.30;1.47;;;6.00;89.70;;;;;;5057122;28;20483;-64
2023/10/17 00:59:50;;;;;;;2.60;1.43;;;6.00;90.10;;;;;;5058218;28;20493;-66
2023/10/17 01:02:20;;;;;;;2.73;1.93;;;5.90;90.00;;;;;;5054209;28;20474;-65
2023/10/17 01:04:49;;;;;;;6.63;2.53;;;5.90;90.10;;;;;;5070009;28;20467;-65
2023/10/17 01:07:24;;;;;;;4.40;1.73;;;5.90;90.00;;;;;;5060630;28;20569;-64
2023/10/17 01:09:55;;;;;;;3.53;2.00;;;5.90;90.10;;;;;;5059896;28;20482;-65
2023/10/17 01:12:26;;;;;;;4.67;2.67;;;5.90;90.20;;;;;;5053659;28;20478;-65
2023/10/17 01:14:53;;;;;;;3.63;1.97;;;5.90;90.30;;;;;;5048752;28;21050;-66
2023/10/17 01:17:23;;;;;;;3.60;1.70;;;5.90;90.10;;;;;;5048076;28;20553;-64
2023/10/17 01:19:57;;;;;;;3.20;2.10;;;5.90;90.00;;;;;;5058774;28;20479;-66
2023/10/17 01:22:24;;;;;;;2.70;2.10;;;5.90;90.00;;;;;;5042864;28;20475;-66
2023/10/17 01:24:56;;;;;;;3.40;2.47;;;5.90;90.00;;;;;;5057830;28;20508;-66
2023/10/17 01:27:23;;;;;;;2.43;1.50;;;5.90;89.30;;;;;;5059369;28;20483;-66
2023/10/17 01:29:50;;;;;;;2.83;1.70;;;5.90;90.00;;;;;;5066748;28;20586;-64
2023/10/17 01:32:18;;;;;;;4.20;2.60;;;5.80;90.00;;;;;;5085894;28;21049;-65
2023/10/17 01:34:45;;;;;;;2.10;1.60;;;5.80;90.20;;;;;;5052435;28;20479;-65
2023/10/17 01:37:11;;;;;;;2.93;1.77;;;5.80;90.30;;;;;;5052450;28;20479;-65
2023/10/17 01:39:39;;;;;;;3.20;2.00;;;5.80;90.20;;;;;;5085886;28;21069;-66
2023/10/17 01:42:08;;;;;;;7.23;2.77;;;5.80;90.00;;;;;;5080165;28;20526;-65
2023/10/17 01:44:35;;;;;;;3.50;1.87;;;5.80;89.90;;;;;;5058692;28;20475;-64
2023/10/17 01:47:07;;;;;;;4.20;2.57;;;5.70;90.00;;;;;;5061167;28;20475;-66
2023/10/17 01:49:34;;;;;;;3.00;1.73;;;5.70;90.00;;;;;;5056108;28;20843;-66
2023/10/17 01:52:01;;;;;;;2.00;1.53;;;5.70;90.30;;;;;;5056710;28;20486;-66
2023/10/17 01:54:29;;;;;;;3.60;2.13;;;5.70;90.30;;;;;;5057704;28;20582;-66
2023/10/17 01:57:05;;;;;;;3.73;2.20;;;5.70;90.60;;;;;;5055961;28;20486;-65
2023/10/17 01:59:34;;;;;;;7.63;2.83;;;5.70;90.60;;;;;;5043445;28;20552;-65
2023/10/17 02:02:03;;;;;;;3.93;2.00;;;5.70;90.80;;;;;;5085235;28;20989;-66
2023/10/17 02:04:30;;;;;;;3.70;1.63;;;5.70;90.90;;;;;;5061162;28;20965;-65
2023/10/17 02:06:58;;;;;;;4.43;2.40;;;5.70;90.80;;;;;;5070103;28;20490;-66
2023/10/17 02:09:44;;;;;;;2.83;1.47;;;5.70;90.80;;;;;;5059051;28;20517;-65
2023/10/17 02:12:11;;;;;;;2.50;1.70;;;5.70;90.90;;;;;;5054748;28;20510;-65
2023/10/17 02:14:41;;;;;;;3.03;1.90;;;5.80;90.50;;;;;;5048521;28;20491;-66
2023/10/17 02:17:09;;;;;;;2.27;1.67;;;5.80;90.70;;;;;;5064209;28;20855;-60
2023/10/17 02:19:38;;;;;;;3.40;1.77;;;5.80;90.70;;;;;;5067460;28;20483;-60
2023/10/17 02:22:09;;;;;;;2.27;1.47;;;5.70;90.80;;;;;;5059288;28;20471;-62
2023/10/17 02:24:37;;;;;;;2.47;1.70;;;5.70;91.00;;;;;;5056786;28;20564;-60
2023/10/17 02:27:08;;;;;;;2.10;1.50;;;5.70;91.10;;;;;;5070976;28;20469;-60
2023/10/17 02:29:41;;;;;;;6.53;3.53;;;5.70;91.10;;;;;;5067635;28;20575;-60
2023/10/17 02:32:12;;;;;;;3.23;1.90;;;5.70;91.20;;;;;;5047995;28;20544;-60
2023/10/17 02:34:40;;;;;;;5.80;2.13;;;5.80;91.30;;;;;;5075560;28;20617;-60
2023/10/17 02:37:10;;;;;;;2.73;1.97;;;5.80;91.30;;;;;;5054012;28;20573;-61
2023/10/17 02:39:38;;;;;;;2.23;2.00;;;5.80;91.30;;;;;;5055668;28;20471;-60
2023/10/17 02:42:08;;;;;;;4.20;2.37;;;5.90;91.70;;;;;;5059273;28;20878;-60
2023/10/17 02:44:35;;;;;;;5.63;1.70;;;5.90;91.40;;;;;;5057258;28;20483;-62
2023/10/17 02:47:05;;;;;;;2.40;1.80;;;5.90;91.40;;;;;;5059493;28;20478;-60
2023/10/17 02:49:38;;;;;;;4.50;2.57;;;5.90;91.30;;;;;;5038437;28;21158;-61
2023/10/17 02:52:05;;;;;;;2.70;1.80;;;5.90;91.40;;;;;;5062767;28;20560;-60
2023/10/17 02:54:34;;;;;;;3.03;1.97;;;5.90;90.80;;;;;;5072834;28;20661;-60
2023/10/17 02:57:02;;;;;;;3.30;1.40;;;5.90;90.80;;;;;;5056608;28;20554;-62
2023/10/17 02:59:30;;;;;;;2.90;2.17;;;5.80;91.10;;;;;;5056374;28;20485;-60
2023/10/17 03:01:57;;;;;;;8.70;3.07;;;5.80;91.40;;;;;;5056361;28;21201;-60
2023/10/17 03:04:27;;;;;;;6.10;2.50;;;5.80;91.40;;;;;;5056621;28;20873;-62
2023/10/17 03:06:55;;;;;;;2.40;1.73;;;5.80;91.60;;;;;;5056778;28;20592;-62
2023/10/17 03:09:37;;;;;;;3.80;2.83;;;5.80;91.80;;;;;;5056169;28;20496;-60
2023/10/17 03:12:22;;;;;;;2.47;1.80;;;5.80;92.20;;;;;;5056204;28;21000;-60
2023/10/17 03:17:34;;;;;;;2.93;1.70;;;5.90;92.20;;;;;;5062940;28;20482;-60
2023/10/17 03:19:59;;;;;;;3.90;1.93;;;5.90;92.40;;;;;;5057033;28;20475;-60
2023/10/17 03:22:28;;;;;;;4.83;1.97;;;6.00;92.20;;;;;;5058204;28;20471;-59
2023/10/17 03:25:01;;;;;;;3.60;1.50;;;6.00;92.50;;;;;;5063881;28;20314;-60
2023/10/17 03:27:36;;;;;;;2.87;1.90;;;6.10;92.50;;;;;;5055291;28;20497;-60
2023/10/17 03:30:05;;;;;;;7.87;2.30;;;6.10;92.40;;;;;;5065457;28;20478;-61
2023/10/17 03:32:32;;;;;;;3.60;1.63;;;6.20;92.20;;;;;;5057330;28;20511;-61
2023/10/17 03:34:59;;;;;;;2.40;1.70;;;6.20;92.30;;;;;;5065265;28;20901;-61
2023/10/17 03:37:28;;;;;;;4.57;1.70;;;6.20;92.20;;;;;;5062584;28;20509;-61
2023/10/17 03:39:57;;;;;;;2.30;1.60;;;6.20;92.20;;;;;;5054798;28;20680;-60
2023/10/17 03:42:42;;;;;;;2.73;1.70;;;6.20;92.30;;;;;;5057392;28;20487;-60
2023/10/17 03:45:16;;;;;;;3.83;2.23;;;6.20;92.30;;;;;;5053451;28;20483;-61
2023/10/17 03:47:44;;;;;;;2.33;2.03;;;6.20;92.60;;;;;;5054578;28;20566;-64
2023/10/17 03:50:14;;;;;;;4.10;1.97;;;6.30;92.60;;;;;;5049034;28;20499;-65
2023/10/17 03:52:42;;;;;;;2.30;2.00;;;6.30;92.50;;;;;;5082634;28;21025;-65
2023/10/17 03:55:10;;;;;;;2.83;1.80;;;6.30;92.60;;;;;;5053313;28;20489;-65
2023/10/17 03:57:52;;;;;;;4.73;2.20;;;6.40;92.60;;;;;;5059160;28;20490;-64
2023/10/17 04:00:25;;;;;;;3.40;2.07;;;6.40;92.60;;;;;;5059613;28;20491;-64
2023/10/17 04:02:52;;;;;;;2.60;1.43;;;6.40;92.50;;;;;;5055955;28;20480;-64
2023/10/17 04:05:22;;;;;;;2.80;1.57;;;6.50;92.30;;;;;;5063736;28;20482;-65
2023/10/17 04:07:54;;;;;;;3.17;2.30;;;6.50;92.10;;;;;;5056263;28;20482;-65
2023/10/17 04:10:21;;;;;;;5.70;2.27;;;6.60;92.40;;;;;;5045746;28;20567;-65
2023/10/17 04:12:58;;;;;;;4.00;2.70;;;6.60;92.30;;;;;;5088788;28;20478;-65
2023/10/17 04:15:25;;;;;;;5.50;2.73;;;6.60;92.10;;;;;;5075589;28;20465;-64
2023/10/17 04:17:52;;;;;;;5.20;2.97;;;6.60;92.20;;;;;;5061524;28;20996;-64
2023/10/17 04:20:22;;;;;;;3.17;2.43;;;6.70;92.20;;;;;;5069619;28;20481;-64
2023/10/17 04:22:51;;;;;;;3.07;1.77;;;6.70;92.20;;;;;;5059463;28;20478;-64
2023/10/17 04:25:33;;;;;;;3.73;2.40;;;6.80;92.10;;;;;;5080837;28;20473;-64
2023/10/17 04:28:00;;;;;;;4.50;2.23;;;6.80;92.20;;;;;;5062794;28;20786;-64
2023/10/17 04:30:30;;;;;;;3.47;2.03;;;6.80;92.20;;;;;;5045457;28;20598;-64
2023/10/17 04:33:08;;;;;;;4.40;2.83;;;6.90;92.00;;;;;;5061230;28;20492;-64
2023/10/17 04:35:35;;;;;;;2.30;1.70;;;6.90;92.10;;;;;;5062417;28;20807;-65
2023/10/17 04:38:16;;;;;;;4.93;2.80;;;6.90;92.00;;;;;;5084877;28;20513;-60
2023/10/17 04:40:50;;;;;;;2.70;2.00;;;6.90;91.50;;;;;;5067795;28;20486;-61
2023/10/17 04:46:01;;;;;;;4.10;2.53;;;6.90;91.40;;;;;;5070456;28;20768;-61
2023/10/17 04:48:35;;;;;;;3.57;2.60;;;6.90;91.50;;;;;;5073861;28;20478;-61
2023/10/17 04:51:13;;;;;;;4.30;2.57;;;6.80;91.60;;;;;;5061426;28;21036;-61
2023/10/17 04:53:48;;;;;;;5.67;2.80;;;6.80;91.60;;;;;;5047131;28;20584;-60
2023/10/17 04:56:18;;;;;;;3.50;2.73;;;6.90;91.90;;;;;;5072571;28;20493;-62
2023/10/17 04:58:57;;;;;;;6.23;2.70;;;6.90;91.40;;;;;;5070272;28;20471;-64
2023/10/17 05:01:39;;;;;;;3.43;2.53;;;6.90;91.70;;;;;;5055041;28;21316;-65
2023/10/17 05:04:18;;;;;;;6.10;2.47;;;6.90;91.80;;;;;;5047577;28;20491;-64
2023/10/17 06:18:33;;;;;;;5.70;2.80;;;7.40;91.80;;;;;;5072529;28;20486;-64
2023/10/17 06:21:18;;;;;;;4.67;2.73;;;7.40;91.60;;;;;;5056605;28;20532;-64
2023/10/17 06:26:47;;;;;;;2.77;2.00;;;7.60;91.40;;;;;;5048041;28;20482;-65
2023/10/17 06:32:15;;;;;;;2.97;1.70;;;7.60;91.60;;;;;;5050112;28;20528;-64
2023/10/17 06:34:42;;;;;;;4.30;2.03;;;7.60;91.50;;;;;;5059225;28;20923;-65
2023/10/17 06:37:11;;;;;;;2.10;1.27;;;7.70;91.60;;;;;;5047937;28;20624;-64
2023/10/17 06:39:46;;;;;;;3.17;2.40;;;7.70;91.50;;;;;;5089803;28;20475;-65
2023/10/17 06:42:15;;;;;;;7.07;3.47;;;7.70;91.40;;;;;;5052536;28;20513;-64
2023/10/17 06:44:53;;;;;;;5.13;2.17;;;7.80;91.60;;;;;;5055537;28;20886;-64
2023/10/17 06:47:29;;;;;;;3.43;1.93;;;7.80;91.60;;;;;;5058726;28;20492;-64
2023/10/17 06:50:51;;;;;;;5.20;2.50;;;7.90;91.70;;;;;;5068250;28;20465;-64
2023/10/17 06:53:03;;;;;;;6.87;1.60;;;8.00;91.60;;;;;;5056640;28;20959;-65
2023/10/17 06:55:38;;;;;;;3.27;2.10;;;8.00;91.60;;;;;;5067513;28;20481;-64
2023/10/17 06:58:09;;;;;;;3.03;2.10;;;8.10;91.30;;;;;;5067748;28;20543;-60
2023/10/17 07:00:44;;;;;;;2.30;1.97;;;8.10;91.50;;;;;;5063745;28;20487;-61
2023/10/17 07:03:14;;;;;;;3.93;2.57;;;8.20;91.70;;;;;;5060200;28;21134;-60
2023/10/17 07:05:41;;;;;;;2.03;1.30;;;8.30;91.70;;;;;;5071044;28;21037;-60
2023/10/17 07:08:13;;;;;;;3.87;2.33;;;8.40;91.70;;;;;;5053424;28;20566;-61
2023/10/17 07:10:53;;;;;;;3.10;2.13;;;8.50;91.50;;;;;;5054184;28;20889;-61
2023/10/17 07:13:55;;;;;;;2.70;1.90;;;8.60;91.50;;;;;;5066515;28;20476;-61
2023/10/17 07:16:27;;;;;;;8.27;4.20;;;8.70;91.30;;;;;;5057444;28;20561;-62
2023/10/17 07:19:09;;;;;;;3.10;2.47;;;9.00;91.80;;;;;;5055434;28;20481;-65
2023/10/17 07:21:55;;;;;;;3.53;1.87;;;9.10;91.30;;;;;;5055045;28;20478;-64
2023/10/17 07:24:23;;;;;;;3.50;2.60;;;9.30;91.30;;;;;;5057187;28;21079;-64
2023/10/17 07:26:52;;;;;;;3.80;2.10;;;9.60;90.80;;;;;;5053296;28;20506;-64
2023/10/17 07:29:21;;;;;;;4.10;2.67;;;9.60;91.00;;;;;;5054372;28;20911;-64
2023/10/17 07:31:53;;;;;;;3.83;2.60;;;9.70;90.60;;;;;;5045680;28;20487;-64
2023/10/17 07:34:23;;;;;;;7.50;2.53;;;9.70;90.60;;;;;;5079035;28;20489;-64
2023/10/17 07:36:55;;;;;;;4.47;2.50;;;9.80;90.60;;;;;;5059823;28;20474;-64
2023/10/17 07:39:29;;;;;;;5.10;2.20;;;9.80;90.50;;;;;;5057370;28;21066;-65
2023/10/17 07:41:55;;;;;;;6.83;2.50;;;9.90;90.60;;;;;;5044217;28;20848;-65
2023/10/17 07:44:25;;;;;;;7.93;4.13;;;9.90;90.50;;;;;;5068086;28;20604;-65
2023/10/17 07:47:08;;;;;;;3.30;2.50;;;10.00;89.00;;;;;;5066800;28;21045;-64
2023/10/17 07:49:36;;;;;;;5.57;2.37;;;10.00;89.70;;;;;;5054415;28;20477;-64
2023/10/17 07:52:10;;;;;;;6.63;3.00;;;10.00;89.30;;;;;;5075871;28;20533;-64
2023/10/17 07:54:55;;;;;;;4.97;3.03;;;10.00;89.80;;;;;;5052119;28;20821;-64
2023/10/17 07:57:23;;;;;;;3.00;2.27;;;10.00;90.00;;;;;;5051775;28;20887;-64
2023/10/17 07:59:51;;;;;;;4.90;2.73;;;10.00;89.80;;;;;;5058594;28;20471;-64
2023/10/17 08:02:20;;;;;;;2.80;2.20;;;10.00;89.70;;;;;;5044917;28;20488;-63
2023/10/17 08:04:50;;;;;;;5.13;3.60;;;10.00;89.80;;;;;;5049549;28;20483;-65
2023/10/17 08:07:20;;;;;;;3.53;2.53;;;10.00;90.10;;;;;;5049904;28;20474;-64
2023/10/17 08:09:56;;;;;;;4.73;2.93;;;10.00;90.20;;;;;;5076801;28;20565;-64
2023/10/17 08:12:23;;;;;;;10.07;3.40;;;10.00;90.10;;;;;;5056774;28;20479;-65
2023/10/17 08:14:57;;;;;;;3.43;2.87;;;10.00;90.30;;;;;;5076669;28;20497;-65
2023/10/17 08:17:28;;;;;;;9.90;4.13;;;10.00;89.90;;;;;;5044038;28;20852;-64
2023/10/17 08:20:09;;;;;;;5.50;3.30;;;10.00;89.80;;;;;;5049754;28;20537;-64
2023/10/17 08:25:26;;;;;;;5.70;4.30;;;10.10;90.10;;;;;;5045676;28;20508;-64
2023/10/17 08:27:55;;;;;;;7.03;4.50;;;10.10;90.30;;;;;;5042234;28;20889;-60
2023/10/17 08:30:23;;;;;;;6.87;3.03;;;10.30;90.40;;;;;;5059376;28;20459;-61
2023/10/17 08:33:09;;;;;;;4.03;3.23;;;10.30;90.00;;;;;;5040132;28;20572;-60
2023/10/17 08:35:38;;;;;;;11.43;3.60;;;10.40;90.00;;;;;;5067433;28;21007;-61
2023/10/17 08:38:06;;;;;;;5.80;2.60;;;10.40;89.30;;;;;;5067242;28;20478;-61
2023/10/17 08:40:40;;;;;;;8.13;3.73;;;10.40;88.70;;;;;;5053842;28;20475;-60
2023/10/17 08:43:10;;;;;;;5.37;3.70;;;10.40;89.30;;;;;;5054759;28;20459;-60
2023/10/17 08:45:39;;;;;;;4.63;3.30;;;10.40;89.60;;;;;;5050955;28;20890;-60
2023/10/17 08:48:09;;;;;;;8.60;3.90;;;10.40;88.80;;;;;;5055436;28;20545;-61
2023/10/17 08:50:39;;;;;;;4.27;2.83;;;10.50;90.00;;;;;;5054560;28;20479;-60
2023/10/17 08:53:12;;;;;;;5.23;3.63;;;10.50;89.00;;;;;;5060929;28;20474;-60
2023/10/17 08:55:41;;;;;;;5.20;3.53;;;10.50;88.00;;;;;;5072007;28;20469;-60
2023/10/17 08:58:09;;;;;;;9.53;3.60;;;10.50;89.10;;;;;;5073033;28;20475;-61
2023/10/17 09:00:55;;;;;;;5.70;2.87;;;10.50;89.30;;;;;;5072440;28;20493;-60
2023/10/17 09:03:28;;;;;;;4.00;3.30;;;10.60;89.50;;;;;;5057187;28;20857;-60
2023/10/17 09:06:05;;;;;;;6.10;3.17;;;10.70;89.60;;;;;;5052097;28;20946;-62
2023/10/17 09:08:47;;;;;;;4.47;3.13;;;10.70;89.00;;;;;;5064904;28;20985;-61
2023/10/17 09:11:15;;;;;;;3.57;2.93;;;10.80;87.90;;;;;;5058321;28;20506;-61
2023/10/17 09:16:39;;;;;;;9.33;4.17;;;10.90;89.20;;;;;;5063152;28;20561;-64
2023/10/17 09:19:10;;;;;;;4.67;3.73;;;10.90;88.60;;;;;;5074138;28;20568;-60
2023/10/17 09:21:41;;;;;;;6.40;3.53;;;11.10;88.10;;;;;;5053112;28;20485;-60
2023/10/17 09:24:29;;;;;;;5.03;3.03;;;11.10;88.90;;;;;;5071838;28;20478;-60
2023/10/17 09:26:58;;;;;;;8.50;3.53;;;11.20;87.00;;;;;;5056184;28;21000;-60
2023/10/17 09:29:27;;;;;;;5.60;3.13;;;11.20;87.60;;;;;;5059907;28;20490;-61
2023/10/17 09:31:54;;;;;;;9.03;3.93;;;11.30;87.50;;;;;;5075955;28;20605;-61
2023/10/17 09:34:25;;;;;;;4.20;3.50;;;11.20;88.00;;;;;;5077758;28;21061;-61
2023/10/17 09:36:58;;;;;;;3.57;2.73;;;11.50;87.60;;;;;;5062328;28;20570;-65
2023/10/17 09:39:29;;;;;;;5.43;2.87;;;11.50;88.10;;;;;;5046106;28;20494;-64
2023/10/17 09:41:56;;;;;;;6.10;3.00;;;11.70;87.20;;;;;;5085531;28;21097;-64
2023/10/17 09:44:23;;;;;;;4.60;3.40;;;11.80;87.50;;;;;;5072634;28;20481;-64
2023/10/17 09:46:56;;;;;;;3.83;2.70;;;12.00;87.20;;;;;;5073957;28;20519;-64
2023/10/17 09:49:30;;;;;;;5.33;3.27;;;12.10;86.80;;;;;;5076012;28;20479;-65
2023/10/17 09:51:57;;;;;;;5.90;2.97;;;12.30;86.60;;;;;;5048541;28;20927;-65
2023/10/17 09:54:28;;;;;;;7.27;3.63;;;12.40;85.80;;;;;;5065146;28;20473;-64
2023/10/17 09:56:56;;;;;;;7.23;3.80;;;12.50;86.20;;;;;;5050319;28;20475;-65
2023/10/17 09:59:31;;;;;;;3.70;3.40;;;12.60;85.80;;;;;;5040733;28;20561;-65
2023/10/17 10:01:58;;;;;;;5.43;3.60;;;12.60;85.70;;;;;;5070177;28;20466;-65
2023/10/17 10:04:25;;;;;;;7.80;3.27;;;12.80;85.50;;;;;;5048928;28;21057;-65
2023/10/17 10:07:11;;;;;;;9.03;4.00;;;12.90;86.10;;;;;;5046061;28;20566;-65
2023/10/17 10:09:40;;;;;;;6.53;4.37;;;13.10;86.30;;;;;;5050531;28;21047;-64
2023/10/17 10:12:07;;;;;;;6.07;4.37;;;13.40;85.00;;;;;;5071330;28;20473;-65
2023/10/17 10:14:40;;;;;;;3.23;2.50;;;13.70;85.40;;;;;;5063941;28;20538;-64
2023/10/17 10:17:09;;;;;;;6.30;3.60;;;13.90;85.10;;;;;;5066530;28;21621;-64
2023/10/17 10:19:58;;;;;;;8.53;3.93;;;14.10;84.10;;;;;;5053716;28;20486;-64
2023/10/17 10:22:25;;;;;;;9.30;4.97;;;14.30;84.00;;;;;;5055924;28;20580;-64
2023/10/17 10:25:06;;;;;;;5.50;3.77;;;14.50;83.70;;;;;;5073799;28;20587;-64
2023/10/17 10:27:32;;;;;;;4.87;3.40;;;14.90;83.10;;;;;;5062210;27;21016;-65
2023/10/17 10:30:34;;;;;;;7.50;4.20;;;15.00;81.70;;;;;;5060639;28;20481;-64
2023/10/17 10:33:01;;;;;;;6.83;3.90;;;15.00;82.00;;;;;;5057359;28;20486;-64
2023/10/17 10:35:32;;;;;;;17.33;4.47;;;15.00;80.70;;;;;;5051463;28;20483;-64
2023/10/17 10:37:59;;;;;;;5.30;4.00;;;14.90;80.80;;;;;;5047422;28;20485;-61
2023/10/17 10:40:36;;;;;;;4.27;2.93;;;14.90;81.70;;;;;;5057384;28;20919;-60
2023/10/17 10:43:04;;;;;;;6.30;4.20;;;14.80;81.00;;;;;;5051291;28;20475;-61
2023/10/17 10:45:35;;;;;;;9.20;3.87;;;14.80;81.00;;;;;;5053749;28;20514;-61
2023/10/17 10:48:04;;;;;;;4.77;3.83;;;14.80;81.60;;;;;;5053081;28;21018;-64
2023/10/17 10:50:33;;;;;;;5.43;3.33;;;14.80;81.60;;;;;;5068870;28;20575;-65
2023/10/17 10:53:01;;;;;;;6.70;3.60;;;14.80;81.40;;;;;;5072878;28;20507;-65
2023/10/17 10:55:30;;;;;;;6.63;4.20;;;14.70;81.60;;;;;;5051788;28;20479;-65
2023/10/17 10:58:01;;;;;;;5.53;3.27;;;14.70;81.70;;;;;;5053910;28;20481;-64
2023/10/17 11:00:28;;;;;;;5.53;3.90;;;14.80;82.00;;;;;;5074664;28;21224;-65
2023/10/17 11:02:56;;;;;;;5.00;3.60;;;14.80;81.30;;;;;;5049564;28;20570;-64
2023/10/17 11:05:23;;;;;;;4.43;3.63;;;14.80;82.20;;;;;;5054759;28;20485;-64
2023/10/17 11:08:00;;;;;;;4.57;3.47;;;14.90;82.10;;;;;;5060266;28;20589;-64
2023/10/17 11:10:27;;;;;;;5.43;4.37;;;15.00;81.20;;;;;;5059787;28;20500;-64
2023/10/17 11:12:54;;;;;;;4.97;3.80;;;15.10;82.10;;;;;;5072066;28;20581;-65
2023/10/17 11:15:26;;;;;;;5.57;3.13;;;15.20;82.30;;;;;;5069592;28;20479;-64
2023/10/17 11:18:00;;;;;;;6.77;4.90;;;15.40;81.90;;;;;;5057913;28;20486;-65
2023/10/17 11:20:28;;;;;;;5.53;3.80;;;15.50;81.60;;;;;;5039886;28;20550;-65
2023/10/17 11:22:56;;;;;;;5.70;3.70;;;15.50;80.30;;;;;;5058435;28;20474;-64
2023/10/17 11:25:27;;;;;;;6.50;3.70;;;15.50;80.20;;;;;;5057058;28;20474;-64
2023/10/17 11:27:56;;;;;;;4.30;3.10;;;15.50;80.80;;;;;;5054230;28;20529;-65
2023/10/17 11:30:32;;;;;;;5.03;3.60;;;15.50;81.50;;;;;;5076952;28;20575;-64
2023/10/17 11:33:04;;;;;;;5.10;3.20;;;15.60;81.30;;;;;;5047295;28;20915;-64
2023/10/17 11:35:34;;;;;;;6.57;4.30;;;15.80;81.30;;;;;;5056940;28;20475;-64
2023/10/17 11:38:00;;;;;;;7.93;4.23;;;15.90;79.20;;;;;;5081242;28;20469;-64
2023/10/17 11:40:32;;;;;;;6.13;3.87;;;16.00;81.00;;;;;;5050131;28;20479;-65
2023/10/17 11:42:59;;;;;;;4.60;3.33;;;16.00;81.00;;;;;;5041532;28;20478;-65
2023/10/17 11:45:34;;;;;;;7.07;4.40;;;16.00;80.80;;;;;;5064310;28;21041;-64
2023/10/17 11:48:14;;;;;;;8.90;4.00;;;16.10;81.00;;;;;;5062460;28;20607;-61
2023/10/17 11:50:41;;;;;;;5.67;4.20;;;16.20;80.00;;;;;;5056009;28;20541;-61
2023/10/17 11:53:12;;;;;;;6.80;4.27;;;16.40;79.70;;;;;;5050873;28;20503;-61
2023/10/17 11:55:45;;;;;;;6.33;3.83;;;16.60;78.90;;;;;;5072112;28;20853;-61
2023/10/17 11:58:20;;;;;;;9.73;5.43;;;16.80;78.40;;;;;;5061574;28;20489;-64
2023/10/17 12:00:50;;;;;;;8.40;4.80;;;17.20;79.40;;;;;;5058288;28;21220;-66
2023/10/17 12:03:19;;;;;;;8.07;4.77;;;17.10;74.80;;;;;;5044237;28;20478;-65
2023/10/17 12:05:46;;;;;;;7.53;5.40;;;17.30;76.30;;;;;;5056763;28;20486;-64
2023/10/17 12:08:21;;;;;;;5.57;3.90;;;17.60;77.30;;;;;;5048332;28;20574;-64
2023/10/17 12:10:49;;;;;;;6.47;4.20;;;17.80;76.80;;;;;;5052615;28;20463;-65
2023/10/17 12:13:17;;;;;;;8.50;4.53;;;18.10;76.00;;;;;;5054290;28;20471;-65
2023/10/17 12:15:44;;;;;;;8.13;4.57;;;18.20;75.00;;;;;;5053003;28;20495;-65
2023/10/17 12:18:12;;;;;;;5.30;4.27;;;18.30;74.50;;;;;;5052993;28;20958;-65
2023/10/17 12:20:41;;;;;;;8.77;4.90;;;18.30;73.50;;;;;;5055913;28;20485;-65
2023/10/17 12:23:12;;;;;;;8.63;4.50;;;18.30;73.30;;;;;;5056006;28;20477;-66
2023/10/17 12:25:42;;;;;;;7.47;3.83;;;18.10;72.10;;;;;;5054058;28;20475;-64
2023/10/17 12:28:09;;;;;;;5.53;4.27;;;18.00;73.50;;;;;;5054135;28;20510;-66
2023/10/17 12:30:40;;;;;;;5.10;3.20;;;17.90;73.10;;;;;;5054833;28;20474;-66
2023/10/17 12:33:08;;;;;;;5.70;4.00;;;17.90;73.40;;;;;;5055526;28;20481;-64
2023/10/17 12:35:37;;;;;;;7.23;4.27;;;17.80;72.90;;;;;;5054534;28;20483;-65
2023/10/17 12:38:14;;;;;;;7.23;4.10;;;17.90;72.70;;;;;;5055132;28;20474;-64
2023/10/17 12:40:41;;;;;;;5.00;4.07;;;17.80;74.10;;;;;;5054216;28;20486;-64
2023/10/17 12:43:17;;;;;;;7.23;3.80;;;18.00;74.80;;;;;;5052986;28;21036;-66
2023/10/17 12:45:44;;;;;;;3.70;2.93;;;18.10;72.60;;;;;;5053585;28;21018;-65
2023/10/17 12:48:11;;;;;;;4.50;2.87;;;18.20;73.70;;;;;;5044724;28;20492;-64
2023/10/17 12:50:43;;;;;;;4.07;3.67;;;18.30;73.70;;;;;;5077523;28;20481;-65
2023/10/17 12:53:11;;;;;;;5.70;3.37;;;18.30;73.40;;;;;;5046830;28;20580;-65
2023/10/17 12:55:39;;;;;;;4.00;3.00;;;18.40;73.20;;;;;;5066437;28;20510;-64
2023/10/17 12:58:07;;;;;;;4.30;3.23;;;18.50;74.00;;;;;;5052386;28;20760;-65
2023/10/17 13:00:34;;;;;;;5.60;3.43;;;18.70;73.20;;;;;;5054043;28;20803;-65
2023/10/17 13:03:07;;;;;;;4.40;3.50;;;18.70;72.30;;;;;;5055663;28;20511;-66
2023/10/17 13:05:34;;;;;;;8.60;3.63;;;18.80;71.30;;;;;;5054017;28;21034;-65
2023/10/17 13:08:10;;;;;;;12.60;4.20;;;18.60;70.20;;;;;;5064945;28;20993;-65
2023/10/17 13:10:36;;;;;;;4.70;2.97;;;18.50;70.30;;;;;;5046704;28;20639;-66
2023/10/17 13:13:03;;;;;;;6.13;3.23;;;18.60;72.20;;;;;;5054401;28;21056;-66
2023/10/17 13:15:30;;;;;;;2.60;2.13;;;18.20;69.50;;;;;;5052533;28;20885;-64
2023/10/17 13:18:00;;;;;;;5.23;3.70;;;18.00;69.30;;;;;;5061575;28;20878;-65
2023/10/17 13:20:29;;;;;;;6.27;3.90;;;17.80;70.60;;;;;;5060739;28;20475;-66
2023/10/17 13:22:59;;;;;;;4.13;2.60;;;18.10;72.80;;;;;;5053505;28;20474;-65
2023/10/17 13:25:27;;;;;;;8.17;4.60;;;18.20;72.80;;;;;;5052592;28;20493;-66
2023/10/17 13:27:54;;;;;;;6.10;3.50;;;18.40;73.50;;;;;;5063867;28;20567;-66
2023/10/17 13:30:22;;;;;;;5.90;4.03;;;18.50;71.70;;;;;;5063465;28;20485;-65
2023/10/17 13:32:52;;;;;;;3.03;2.17;;;18.50;71.90;;;;;;5055586;28;20957;-65
2023/10/17 13:35:20;;;;;;;4.73;3.20;;;18.10;69.80;;;;;;5053616;28;21024;-66
2023/10/17 13:37:52;;;;;;;5.17;3.07;;;18.20;72.20;;;;;;5070741;28;20477;-64
2023/10/17 13:40:21;;;;;;;5.40;3.50;;;18.00;72.80;;;;;;5052679;28;20506;-66
2023/10/17 13:42:52;;;;;;;4.87;3.23;;;18.10;73.20;;;;;;5048006;28;20477;-64
2023/10/17 13:45:21;;;;;;;4.87;2.50;;;18.10;73.90;;;;;;5066652;28;20474;-65
2023/10/17 13:47:48;;;;;;;3.60;2.67;;;18.30;74.00;;;;;;5070251;28;20461;-64
2023/10/17 13:50:15;;;;;;;5.57;3.93;;;18.40;74.00;;;;;;5050356;28;21290;-65
2023/10/17 13:52:42;;;;;;;5.37;3.43;;;18.50;72.90;;;;;;5055068;28;20601;-65
2023/10/17 13:55:13;;;;;;;5.53;2.70;;;18.60;73.30;;;;;;5054162;28;20471;-64
2023/10/17 13:57:42;;;;;;;4.23;3.03;;;18.70;73.50;;;;;;5052350;28;20479;-65
2023/10/17 14:00:18;;;;;;;5.53;2.63;;;18.80;73.90;;;;;;5056670;28;20465;-65
2023/10/17 14:02:48;;;;;;;6.33;3.43;;;18.80;73.00;;;;;;5061535;28;20471;-64
2023/10/17 14:05:15;;;;;;;5.67;3.23;;;18.90;72.90;;;;;;5060950;28;20469;-64
2023/10/17 14:07:43;;;;;;;3.90;3.10;;;18.90;72.70;;;;;;5065882;28;20489;-61
2023/10/17 14:10:11;;;;;;;4.40;3.17;;;18.80;72.60;;;;;;5044945;28;20847;-62
2023/10/17 14:12:40;;;;;;;5.27;3.33;;;18.80;72.80;;;;;;5047470;28;20477;-61
2023/10/17 14:15:08;;;;;;;4.33;3.03;;;18.80;72.20;;;;;;5062561;28;21164;-62
2023/10/17 14:17:36;;;;;;;3.90;3.30;;;18.80;72.30;;;;;;5049454;28;20530;-64
2023/10/17 14:20:14;;;;;;;5.50;2.67;;;18.70;72.40;;;;;;5071648;28;20946;-65
2023/10/17 14:22:57;;;;;;;4.10;2.70;;;18.70;73.20;;;;;;5061831;28;21082;-64
2023/10/17 14:28:08;;;;;;;4.23;3.20;;;18.70;72.60;;;;;;5053042;28;20829;-62
2023/10/17 14:30:37;;;;;;;4.10;2.77;;;18.60;72.20;;;;;;5073800;28;20556;-62
2023/10/17 14:33:08;;;;;;;4.83;3.27;;;18.50;72.70;;;;;;5050586;28;20759;-61
2023/10/17 14:35:35;;;;;;;4.87;2.53;;;18.50;72.80;;;;;;5070390;28;21062;-63
2023/10/17 14:38:02;;;;;;;7.03;3.17;;;18.50;71.90;;;;;;5051720;28;20795;-61
2023/10/17 14:40:29;;;;;;;5.60;3.30;;;18.40;71.90;;;;;;5053779;28;20574;-61
2023/10/17 14:42:56;;;;;;;4.60;2.73;;;18.30;73.00;;;;;;5050073;28;20574;-61
2023/10/17 14:45:24;;;;;;;5.30;3.70;;;18.30;73.30;;;;;;5050308;28;20905;-62